Time;durP1;ratioP1;P1;durP2;ratioP2;P2;SDS_P1;SDS_P2;PMS_P1;PMS_P2;Temp;Humidity;BMP_temperature;BMP_pressure;BME280_temperature;BME280_humidity;BME280_pressure;Samples;Min_cycle;Max_cycle;Signal;HPM_P1;HPM_P2
2021/04/23 00:01:30;;;;;;;12.32;4.50;;;4.90;99.90;;;;;;10326699;28;20077;-60
2021/04/23 00:06:35;;;;;;;12.02;3.08;;;4.90;99.90;;;;;;10328871;28;20108;-61
2021/04/23 00:11:40;;;;;;;10.60;3.25;;;4.80;99.90;;;;;;10324805;28;20089;-61
2021/04/23 00:16:41;;;;;;;7.75;2.20;;;4.80;99.90;;;;;;10324970;28;20070;-61
2021/04/23 00:21:43;;;;;;;7.57;2.15;;;4.70;99.90;;;;;;10330378;28;20140;-59
2021/04/23 00:26:45;;;;;;;6.25;2.10;;;4.60;99.90;;;;;;10324249;28;20955;-60
2021/04/23 00:37:09;;;;;;;5.38;2.08;;;4.50;99.90;;;;;;10255821;28;20038;-60
2021/04/23 00:42:10;;;;;;;9.52;2.08;;;4.40;99.90;;;;;;10326095;28;20119;-60
2021/04/23 00:47:12;;;;;;;7.25;2.40;;;4.40;99.90;;;;;;10329029;28;20073;-60
2021/04/23 00:52:13;;;;;;;8.52;2.03;;;4.40;99.90;;;;;;10323965;28;20042;-60
2021/04/23 00:57:14;;;;;;;5.40;2.03;;;4.30;99.90;;;;;;10324541;28;20050;-60
2021/04/23 01:02:16;;;;;;;8.75;2.28;;;4.20;99.90;;;;;;10317014;28;20062;-60
2021/04/23 01:07:17;;;;;;;12.77;2.40;;;4.10;99.90;;;;;;10326793;28;20141;-60
2021/04/23 01:12:18;;;;;;;8.52;2.40;;;4.10;99.90;;;;;;10325096;28;20057;-60
2021/04/23 01:17:19;;;;;;;6.60;1.77;;;4.00;99.90;;;;;;10326384;28;20112;-60
2021/04/23 01:22:21;;;;;;;7.63;2.90;;;3.90;99.90;;;;;;10328343;28;20056;-60
2021/04/23 01:27:22;;;;;;;31.30;10.40;;;3.90;99.90;;;;;;10320724;28;20046;-60
2021/04/23 01:32:23;;;;;;;30.77;11.43;;;3.80;99.90;;;;;;10327918;28;20073;-59
2021/04/23 01:37:24;;;;;;;22.52;9.13;;;3.70;99.90;;;;;;10321493;28;20070;-59
2021/04/23 01:42:26;;;;;;;14.80;5.97;;;3.70;99.90;;;;;;10333907;28;20054;-60
2021/04/23 01:47:27;;;;;;;10.02;3.05;;;3.70;99.90;;;;;;10326777;28;20487;-60
2021/04/23 01:52:29;;;;;;;11.75;2.97;;;3.60;99.90;;;;;;10316622;28;20539;-60
2021/04/23 01:57:31;;;;;;;8.77;3.22;;;3.70;99.90;;;;;;10331106;28;20049;-60
2021/04/23 02:02:32;;;;;;;5.70;2.33;;;3.70;99.90;;;;;;10268811;28;20058;-60
2021/04/23 02:07:33;;;;;;;7.57;3.00;;;3.50;99.90;;;;;;10308594;28;20337;-60
2021/04/23 02:12:35;;;;;;;7.97;2.33;;;3.30;99.90;;;;;;10322100;28;20543;-60
2021/04/23 02:17:36;;;;;;;9.25;2.97;;;3.20;99.90;;;;;;10330333;28;20050;-60
2021/04/23 02:22:38;;;;;;;11.20;4.05;;;3.20;99.90;;;;;;10332641;28;20077;-60
2021/04/23 02:27:41;;;;;;;7.55;2.90;;;3.20;99.90;;;;;;10327842;28;20076;-60
2021/04/23 02:32:42;;;;;;;11.73;2.70;;;3.10;99.90;;;;;;10329039;28;20042;-60
2021/04/23 02:37:44;;;;;;;4.68;2.10;;;3.10;99.90;;;;;;10321879;28;20122;-60
2021/04/23 02:42:48;;;;;;;13.18;3.92;;;3.20;99.90;;;;;;10335313;28;20061;-61
2021/04/23 02:47:51;;;;;;;10.02;2.40;;;3.10;99.90;;;;;;10337155;28;20054;-60
2021/04/23 02:52:54;;;;;;;7.60;2.25;;;3.10;99.90;;;;;;10321442;28;20045;-60
2021/04/23 02:58:17;;;;;;;8.75;2.65;;;2.90;99.90;;;;;;10331858;28;20050;-60
2021/04/23 03:03:19;;;;;;;5.03;2.53;;;2.90;99.90;;;;;;10281037;28;20061;-60
2021/04/23 03:08:21;;;;;;;8.38;2.90;;;2.90;99.90;;;;;;10338602;28;20161;-60
2021/04/23 03:13:24;;;;;;;5.50;2.80;;;2.90;99.90;;;;;;10335043;28;20049;-60
2021/04/23 03:18:30;;;;;;;5.68;1.98;;;2.80;99.90;;;;;;10338950;28;20049;-60
2021/04/23 03:23:31;;;;;;;6.57;2.50;;;2.80;99.90;;;;;;10331694;28;20607;-60
2021/04/23 03:28:33;;;;;;;19.98;3.75;;;2.70;99.90;;;;;;10325014;28;20050;-60
2021/04/23 03:33:35;;;;;;;6.70;3.03;;;2.60;99.90;;;;;;10315621;28;20113;-60
2021/04/23 03:38:40;;;;;;;8.50;2.78;;;2.50;99.90;;;;;;10328922;28;20050;-60
2021/04/23 03:43:41;;;;;;;3.72;2.00;;;2.50;99.90;;;;;;10330085;28;20133;-60
2021/04/23 03:48:43;;;;;;;9.43;2.97;;;2.40;99.90;;;;;;10329399;28;20054;-60
2021/04/23 03:53:47;;;;;;;6.70;2.40;;;2.40;99.90;;;;;;10325799;28;20081;-60
2021/04/23 03:58:49;;;;;;;11.75;2.55;;;2.30;99.90;;;;;;10328150;28;20086;-60
2021/04/23 04:03:53;;;;;;;7.97;2.63;;;2.30;99.90;;;;;;10327687;28;20045;-60
2021/04/23 04:08:58;;;;;;;9.32;2.85;;;2.30;99.90;;;;;;10326617;28;20043;-59
2021/04/23 04:13:59;;;;;;;11.00;3.90;;;2.10;99.90;;;;;;10328654;28;20072;-60
2021/04/23 04:19:01;;;;;;;14.38;7.72;;;2.20;99.90;;;;;;10329469;28;20140;-59
2021/04/23 04:24:02;;;;;;;14.73;4.80;;;2.20;99.90;;;;;;10322719;28;20048;-60
2021/04/23 04:29:04;;;;;;;10.55;2.83;;;2.20;99.90;;;;;;10326383;28;20050;-59
2021/04/23 04:34:05;;;;;;;7.55;3.03;;;2.20;99.90;;;;;;10329118;28;20131;-59
2021/04/23 04:39:07;;;;;;;10.43;3.05;;;2.20;99.90;;;;;;10327729;28;20547;-60
2021/04/23 04:44:08;;;;;;;10.32;4.10;;;2.30;99.90;;;;;;10324548;28;20053;-60
2021/04/23 04:49:09;;;;;;;6.78;3.15;;;2.40;99.90;;;;;;10327633;28;20041;-60
2021/04/23 04:54:11;;;;;;;8.55;2.55;;;2.50;99.90;;;;;;10328050;28;20457;-59
2021/04/23 04:59:13;;;;;;;5.38;2.40;;;2.60;99.90;;;;;;10328130;28;20120;-59
2021/04/23 05:04:14;;;;;;;11.18;2.53;;;2.80;99.90;;;;;;10325867;28;20046;-59
2021/04/23 05:09:15;;;;;;;12.23;3.22;;;3.00;99.90;;;;;;10323396;28;20504;-59
2021/04/23 05:14:16;;;;;;;9.82;3.70;;;3.10;99.90;;;;;;10327622;28;20089;-59
2021/04/23 05:19:18;;;;;;;9.73;3.13;;;3.30;99.90;;;;;;10326863;28;20069;-61
2021/04/23 05:24:20;;;;;;;12.98;2.83;;;3.50;99.90;;;;;;10327795;28;20057;-59
2021/04/23 05:29:21;;;;;;;6.72;2.33;;;3.80;99.90;;;;;;10325548;28;20053;-64
2021/04/23 05:34:22;;;;;;;15.18;2.70;;;4.20;99.90;;;;;;10326482;28;20066;-59
2021/04/23 05:39:24;;;;;;;5.65;2.30;;;4.60;99.90;;;;;;10327948;28;20396;-59
2021/04/23 05:44:25;;;;;;;8.50;2.22;;;4.80;99.90;;;;;;10331384;28;20077;-59
2021/04/23 05:49:27;;;;;;;12.90;2.90;;;5.00;99.90;;;;;;10327834;28;20393;-59
2021/04/23 05:54:28;;;;;;;10.65;2.25;;;5.20;99.90;;;;;;10327089;28;20469;-58
2021/04/23 05:59:30;;;;;;;9.05;2.55;;;5.40;99.90;;;;;;10324169;28;20049;-59
2021/04/23 06:04:32;;;;;;;11.07;4.15;;;5.60;99.90;;;;;;10325495;28;20046;-60
2021/04/23 06:09:33;;;;;;;9.45;2.58;;;5.70;99.90;;;;;;10330043;28;20065;-60
2021/04/23 06:14:34;;;;;;;7.82;2.70;;;5.80;99.90;;;;;;10336338;28;20480;-60
2021/04/23 06:19:35;;;;;;;7.50;2.50;;;5.90;99.90;;;;;;10337573;28;20069;-60
2021/04/23 06:24:36;;;;;;;12.55;3.35;;;6.10;99.90;;;;;;10334978;28;20064;-62
2021/04/23 06:29:38;;;;;;;9.73;2.85;;;6.10;99.50;;;;;;10338456;28;20108;-60
2021/04/23 06:34:39;;;;;;;12.85;5.55;;;6.20;98.20;;;;;;10242952;28;20061;-61
2021/04/23 06:39:45;;;;;;;8.32;2.95;;;6.30;98.50;;;;;;10232125;28;20052;-60
2021/04/23 06:44:46;;;;;;;8.40;2.55;;;6.40;97.00;;;;;;10331474;28;20053;-60
2021/04/23 06:49:47;;;;;;;12.52;3.25;;;6.60;97.00;;;;;;10331138;28;20054;-60
2021/04/23 06:54:50;;;;;;;15.68;3.38;;;6.70;96.40;;;;;;10334691;28;20077;-60
2021/04/23 06:59:51;;;;;;;10.23;3.25;;;6.90;95.10;;;;;;10334420;28;20112;-60
2021/04/23 07:04:52;;;;;;;9.35;2.38;;;7.00;94.10;;;;;;10334658;28;20050;-60
2021/04/23 07:09:54;;;;;;;14.50;2.63;;;7.20;94.20;;;;;;10329754;28;20078;-61
2021/04/23 07:14:55;;;;;;;16.75;4.10;;;7.10;92.70;;;;;;10331294;28;20480;-61
2021/04/23 07:19:56;;;;;;;8.15;2.75;;;7.40;92.70;;;;;;10332176;28;20050;-61
2021/04/23 07:24:57;;;;;;;7.47;2.70;;;7.50;91.60;;;;;;10331304;28;20042;-61
2021/04/23 07:29:59;;;;;;;10.30;3.22;;;7.50;91.60;;;;;;10332457;28;20140;-61
2021/04/23 07:35:00;;;;;;;7.70;3.17;;;7.60;90.30;;;;;;10327771;28;20381;-60
2021/04/23 07:40:03;;;;;;;7.50;3.25;;;7.80;90.70;;;;;;10330939;28;20060;-59
2021/04/23 07:45:06;;;;;;;13.40;3.58;;;7.80;90.30;;;;;;10325099;28;20606;-59
2021/04/23 07:50:09;;;;;;;6.25;2.17;;;8.00;89.30;;;;;;10333471;28;20050;-60
2021/04/23 07:55:11;;;;;;;14.65;2.85;;;8.00;88.30;;;;;;10327523;28;20061;-60
2021/04/23 08:00:13;;;;;;;8.68;2.53;;;8.10;85.50;;;;;;10330734;28;20050;-60
2021/04/23 08:05:17;;;;;;;15.35;3.60;;;8.30;85.60;;;;;;10328709;28;20057;-60
2021/04/23 08:10:37;;;;;;;9.63;3.33;;;8.60;90.00;;;;;;10324970;28;20047;-60
2021/04/23 08:15:39;;;;;;;9.55;3.03;;;8.70;87.50;;;;;;10324393;28;20054;-60
2021/04/23 08:20:40;;;;;;;5.80;3.10;;;8.90;86.80;;;;;;10329001;28;20125;-60
2021/04/23 08:25:41;;;;;;;6.78;2.60;;;8.90;83.40;;;;;;10326487;28;20062;-60
2021/04/23 08:30:42;;;;;;;10.88;3.85;;;8.90;85.40;;;;;;10332703;28;20544;-60
2021/04/23 08:35:44;;;;;;;11.63;4.07;;;9.10;82.80;;;;;;10328500;28;20590;-60
2021/04/23 08:40:45;;;;;;;11.23;2.80;;;9.20;83.20;;;;;;10324950;28;20072;-60
2021/04/23 08:45:47;;;;;;;6.43;3.47;;;9.20;82.70;;;;;;10325955;28;20190;-60
2021/04/23 08:50:48;;;;;;;12.45;3.22;;;9.40;80.80;;;;;;10324847;28;20057;-59
2021/04/23 08:55:50;;;;;;;13.05;3.40;;;9.30;82.20;;;;;;10325757;28;20058;-62
2021/04/23 09:00:52;;;;;;;10.55;3.38;;;9.60;81.30;;;;;;10325831;28;20108;-60
2021/04/23 09:06:06;;;;;;;8.35;4.40;;;9.70;80.00;;;;;;10326485;28;20034;-60
2021/04/23 09:11:14;;;;;;;13.80;3.83;;;9.60;81.80;;;;;;10325376;28;20069;-59
2021/04/23 09:16:18;;;;;;;12.40;4.45;;;9.90;80.30;;;;;;10322764;28;20046;-60
2021/04/23 09:21:25;;;;;;;11.13;3.08;;;10.10;80.80;;;;;;10309609;28;20513;-59
2021/04/23 09:26:34;;;;;;;12.88;3.05;;;10.20;80.40;;;;;;10321862;28;20049;-60
2021/04/23 09:31:36;;;;;;;10.02;3.33;;;10.50;77.50;;;;;;10321547;28;20397;-59
2021/04/23 09:36:46;;;;;;;11.18;3.20;;;10.60;76.30;;;;;;10326513;28;20388;-59
2021/04/23 09:41:56;;;;;;;6.40;2.80;;;10.90;76.60;;;;;;10326213;28;20058;-60
2021/04/23 09:47:15;;;;;;;8.18;3.28;;;11.00;74.80;;;;;;10329176;28;20057;-59
2021/04/23 09:52:17;;;;;;;9.02;3.22;;;11.20;73.10;;;;;;10269338;28;20048;-60
2021/04/23 09:57:27;;;;;;;14.60;3.33;;;11.30;72.10;;;;;;10333797;28;20054;-59
2021/04/23 10:02:30;;;;;;;7.80;3.35;;;11.50;70.20;;;;;;10330580;28;20437;-60
2021/04/23 10:07:33;;;;;;;5.40;2.28;;;11.70;68.60;;;;;;10335003;28;20101;-60
2021/04/23 10:12:38;;;;;;;7.88;3.17;;;11.70;66.90;;;;;;10320956;28;20049;-59
2021/04/23 10:17:49;;;;;;;9.25;3.10;;;12.30;67.10;;;;;;10333642;28;20081;-60
2021/04/23 10:22:51;;;;;;;8.90;2.55;;;12.20;67.10;;;;;;10333808;28;20061;-60
2021/04/23 10:27:54;;;;;;;8.65;2.42;;;12.30;65.80;;;;;;10342229;28;20112;-60
2021/04/23 10:32:58;;;;;;;10.85;3.20;;;12.50;63.80;;;;;;10332005;28;20115;-60
2021/04/23 10:38:08;;;;;;;11.38;2.72;;;12.70;63.30;;;;;;10326468;28;20045;-59
2021/04/23 10:43:14;;;;;;;3.60;1.95;;;12.90;61.70;;;;;;10338644;28;20123;-60
2021/04/23 10:48:15;;;;;;;6.75;2.35;;;13.30;61.40;;;;;;10333815;28;20112;-60
2021/04/23 10:53:25;;;;;;;5.45;2.45;;;13.60;59.40;;;;;;10332674;28;20054;-60
2021/04/23 10:58:27;;;;;;;7.47;2.92;;;13.60;59.30;;;;;;10334426;28;20111;-66
2021/04/23 11:03:33;;;;;;;7.40;2.60;;;13.70;58.10;;;;;;10328171;28;20053;-59
2021/04/23 11:08:36;;;;;;;6.47;2.72;;;13.80;57.60;;;;;;10319202;28;20089;-62
2021/04/23 11:13:41;;;;;;;9.05;2.55;;;13.90;56.80;;;;;;10333340;28;20524;-63
2021/04/23 11:18:44;;;;;;;8.00;2.92;;;14.30;57.90;;;;;;10330707;28;20485;-61
2021/04/23 11:24:12;;;;;;;7.45;2.20;;;14.50;56.30;;;;;;10331284;28;20480;-62
2021/04/23 11:29:14;;;;;;;7.95;2.33;;;14.60;55.00;;;;;;10278483;28;20120;-61
2021/04/23 11:34:30;;;;;;;5.45;2.03;;;14.90;55.00;;;;;;10333385;28;20057;-61
2021/04/23 11:39:34;;;;;;;3.85;2.13;;;15.10;54.80;;;;;;10332605;28;20058;-61
2021/04/23 11:44:49;;;;;;;10.75;2.42;;;15.20;51.80;;;;;;10330147;28;20050;-61
2021/04/23 11:50:00;;;;;;;8.63;2.03;;;15.40;53.40;;;;;;10330911;28;20493;-61
2021/04/23 11:55:20;;;;;;;6.07;2.42;;;15.60;51.70;;;;;;10325563;28;20093;-60
2021/04/23 12:00:23;;;;;;;5.50;2.30;;;15.80;51.40;;;;;;10333537;28;20382;-61
2021/04/23 12:05:27;;;;;;;5.03;2.25;;;16.10;51.30;;;;;;10329479;28;20467;-63
2021/04/23 12:10:30;;;;;;;4.18;2.08;;;16.30;50.10;;;;;;10332309;28;20069;-62
2021/04/23 12:15:36;;;;;;;5.07;2.30;;;16.60;49.50;;;;;;10329141;28;20170;-62
2021/04/23 12:20:41;;;;;;;8.35;2.25;;;16.70;48.80;;;;;;10334918;28;20077;-62
2021/04/23 12:25:44;;;;;;;4.20;1.98;;;16.90;47.80;;;;;;10328510;28;20078;-62
2021/04/23 12:30:49;;;;;;;4.10;2.03;;;17.20;47.90;;;;;;10328794;28;20046;-63
2021/04/23 12:35:51;;;;;;;5.35;1.95;;;17.50;47.10;;;;;;10325792;28;20057;-62
2021/04/23 12:40:52;;;;;;;5.00;1.90;;;17.80;46.00;;;;;;10329079;28;20050;-63
2021/04/23 12:45:55;;;;;;;3.38;2.20;;;18.00;45.70;;;;;;10325322;28;20057;-62
2021/04/23 12:50:57;;;;;;;6.78;1.98;;;18.40;44.90;;;;;;10331211;28;20507;-62
2021/04/23 12:55:58;;;;;;;4.40;2.17;;;18.60;44.50;;;;;;10328579;28;20050;-63
2021/04/23 13:01:03;;;;;;;5.82;2.00;;;19.10;44.10;;;;;;10325399;28;20061;-62
2021/04/23 13:06:04;;;;;;;6.20;2.17;;;19.20;44.60;;;;;;10324411;28;20365;-61
2021/04/23 13:11:06;;;;;;;8.02;2.42;;;19.80;42.80;;;;;;10327160;28;20057;-61
2021/04/23 13:16:08;;;;;;;5.15;2.40;;;20.10;42.20;;;;;;10327234;28;20045;-62
2021/04/23 13:21:10;;;;;;;4.13;1.40;;;20.20;40.60;;;;;;10325266;28;20374;-62
2021/04/23 13:26:17;;;;;;;8.07;1.55;;;20.70;40.60;;;;;;10326545;28;20054;-62
2021/04/23 13:31:19;;;;;;;5.25;2.03;;;20.80;38.90;;;;;;10328055;28;20108;-62
2021/04/23 13:36:22;;;;;;;4.30;1.73;;;20.90;38.90;;;;;;10322635;28;20493;-63
2021/04/23 13:41:41;;;;;;;4.38;1.88;;;21.20;38.60;;;;;;10329079;28;20129;-62
2021/04/23 13:46:54;;;;;;;5.20;1.77;;;21.40;38.60;;;;;;10279823;28;20050;-61
2021/04/23 13:52:00;;;;;;;5.13;1.73;;;21.70;38.40;;;;;;10325229;28;20931;-62
2021/04/23 13:57:17;;;;;;;4.63;2.08;;;22.00;38.20;;;;;;10321189;28;20124;-62
2021/04/23 14:02:23;;;;;;;6.65;2.17;;;21.60;38.10;;;;;;10326607;28;20053;-61
2021/04/23 14:07:28;;;;;;;4.55;1.73;;;22.20;38.60;;;;;;10331313;28;20061;-61
2021/04/23 14:12:30;;;;;;;2.83;1.42;;;22.00;38.20;;;;;;10323787;28;20049;-61
2021/04/23 14:17:32;;;;;;;4.70;2.58;;;22.10;38.10;;;;;;10310073;28;20046;-60
2021/04/23 14:22:34;;;;;;;5.03;2.15;;;22.20;37.70;;;;;;10331231;28;20081;-61
2021/04/23 14:27:35;;;;;;;6.70;1.77;;;21.40;37.20;;;;;;10326775;28;20077;-60
2021/04/23 14:32:36;;;;;;;6.45;1.77;;;21.80;38.90;;;;;;10331548;28;20579;-60
2021/04/23 14:37:38;;;;;;;5.20;1.70;;;21.80;38.60;;;;;;10334560;28;20058;-60
2021/04/23 14:42:39;;;;;;;3.97;1.75;;;21.70;37.70;;;;;;10335106;28;20061;-60
2021/04/23 14:47:40;;;;;;;3.67;2.08;;;22.00;38.70;;;;;;10335643;28;20050;-60
2021/04/23 14:52:41;;;;;;;6.70;1.58;;;21.50;37.00;;;;;;10324718;28;20065;-61
2021/04/23 14:57:43;;;;;;;3.58;1.40;;;21.40;39.20;;;;;;10326740;28;20508;-61
2021/04/23 15:02:44;;;;;;;11.48;1.85;;;21.40;37.90;;;;;;10335377;28;20124;-61
2021/04/23 15:07:45;;;;;;;3.45;1.30;;;21.20;37.50;;;;;;10337017;28;20046;-61
2021/04/23 15:12:47;;;;;;;4.85;1.83;;;21.80;38.00;;;;;;10333974;28;20149;-61
2021/04/23 15:17:48;;;;;;;3.08;1.27;;;22.10;38.00;;;;;;10332016;28;20061;-60
2021/04/23 15:22:50;;;;;;;4.28;1.40;;;21.80;36.70;;;;;;10331922;28;20073;-60
2021/04/23 15:27:52;;;;;;;3.42;1.33;;;21.40;38.10;;;;;;10329294;28;20056;-61
2021/04/23 15:32:54;;;;;;;5.28;1.35;;;21.50;38.80;;;;;;10334874;28;20054;-60
2021/04/23 15:37:56;;;;;;;3.65;1.20;;;21.30;38.20;;;;;;10327926;28;20049;-60
2021/04/23 15:42:57;;;;;;;2.03;1.00;;;21.10;39.20;;;;;;10332954;28;20116;-62
2021/04/23 15:48:00;;;;;;;2.78;1.02;;;20.10;39.90;;;;;;10333595;28;20058;-62
2021/04/23 15:53:02;;;;;;;3.17;1.40;;;20.30;40.40;;;;;;10331651;28;20081;-62
2021/04/23 15:58:04;;;;;;;2.47;1.38;;;20.40;40.40;;;;;;10333628;28;20065;-62
2021/04/23 16:03:07;;;;;;;7.85;1.45;;;20.20;39.50;;;;;;10333213;28;20096;-62
2021/04/23 16:08:09;;;;;;;4.07;1.33;;;20.40;40.90;;;;;;10334430;28;20456;-62
2021/04/23 16:13:10;;;;;;;5.53;1.35;;;20.50;39.90;;;;;;10327993;28;20049;-62
2021/04/23 16:18:12;;;;;;;8.13;1.65;;;20.10;40.70;;;;;;10331750;28;20641;-62
2021/04/23 16:23:14;;;;;;;3.28;1.08;;;20.00;39.90;;;;;;10331280;28;20104;-62
2021/04/23 16:28:16;;;;;;;2.88;1.23;;;19.90;41.20;;;;;;10329482;28;20528;-67
2021/04/23 16:33:17;;;;;;;3.13;0.90;;;20.00;40.20;;;;;;10330498;28;20045;-60
2021/04/23 16:38:18;;;;;;;2.88;1.25;;;20.20;40.20;;;;;;10328985;28;20065;-61
2021/04/23 16:43:19;;;;;;;6.95;1.25;;;20.00;40.60;;;;;;10326036;28;23155;-60
2021/04/23 16:48:20;;;;;;;4.90;1.30;;;20.10;41.00;;;;;;10330552;28;20053;-61
2021/04/23 16:53:22;;;;;;;3.42;1.27;;;19.90;41.00;;;;;;10326801;28;20109;-60
2021/04/23 16:58:23;;;;;;;2.90;1.20;;;19.80;41.40;;;;;;10327363;28;20054;-61
2021/04/23 17:03:24;;;;;;;4.40;1.30;;;19.60;41.30;;;;;;10324354;28;20065;-61
2021/04/23 17:08:25;;;;;;;4.20;1.70;;;19.30;41.30;;;;;;10326327;28;20062;-61
2021/04/23 17:13:27;;;;;;;3.08;0.90;;;19.10;42.30;;;;;;10331759;28;20143;-60
2021/04/23 17:18:28;;;;;;;5.38;1.77;;;19.00;41.80;;;;;;10313513;28;20116;-60
2021/04/23 17:23:29;;;;;;;3.65;1.20;;;18.80;41.80;;;;;;10326045;28;20400;-61
2021/04/23 17:28:30;;;;;;;2.95;1.17;;;18.40;42.30;;;;;;10331403;28;20042;-61
2021/04/23 17:33:32;;;;;;;3.80;1.67;;;18.00;43.10;;;;;;10298679;28;20365;-61
2021/04/23 17:38:34;;;;;;;9.48;1.85;;;17.60;44.40;;;;;;10307832;28;20038;-59
2021/04/23 17:43:35;;;;;;;3.53;1.25;;;17.20;44.70;;;;;;10307961;28;20065;-61
2021/04/23 17:48:38;;;;;;;8.00;1.58;;;16.80;45.40;;;;;;10313927;28;20054;-59
2021/04/23 17:53:44;;;;;;;5.00;1.08;;;16.50;46.90;;;;;;10324623;28;20049;-59
2021/04/23 17:58:45;;;;;;;7.47;1.33;;;16.10;47.90;;;;;;10311935;28;20061;-59
2021/04/23 18:03:47;;;;;;;5.90;1.60;;;15.80;48.60;;;;;;10311695;28;20133;-59
2021/04/23 18:08:49;;;;;;;3.25;1.00;;;15.60;48.70;;;;;;10298293;28;20058;-59
2021/04/23 18:13:50;;;;;;;4.30;1.52;;;15.30;49.20;;;;;;10326406;28;20100;-58
2021/04/23 18:18:52;;;;;;;5.25;1.60;;;14.90;49.70;;;;;;10329620;28;20449;-58
2021/04/23 18:23:53;;;;;;;5.07;2.15;;;14.80;50.10;;;;;;10309949;28;20046;-59
2021/04/23 18:28:54;;;;;;;4.90;1.83;;;14.50;51.80;;;;;;10329937;28;20527;-60
2021/04/23 18:33:56;;;;;;;7.03;1.63;;;14.20;53.50;;;;;;10328599;28;20246;-60
2021/04/23 18:39:13;;;;;;;4.63;1.88;;;13.90;53.80;;;;;;10246524;28;20046;-60
2021/04/23 18:44:20;;;;;;;5.75;1.33;;;13.70;55.00;;;;;;10312700;28;20488;-61
2021/04/23 18:49:21;;;;;;;6.82;1.20;;;13.40;59.30;;;;;;10313387;28;20047;-62
2021/04/23 18:54:23;;;;;;;6.97;2.05;;;13.20;63.30;;;;;;10322907;28;20057;-63
2021/04/23 18:59:25;;;;;;;32.15;17.38;;;12.80;65.20;;;;;;10328183;28;20061;-65
2021/04/23 19:04:27;;;;;;;37.92;18.45;;;12.50;64.30;;;;;;10328320;28;20053;-64
2021/04/23 19:09:29;;;;;;;31.55;17.02;;;12.20;65.40;;;;;;10309486;28;20104;-64
2021/04/23 19:14:30;;;;;;;14.80;8.77;;;12.00;66.00;;;;;;10327255;28;20042;-63
2021/04/23 19:19:33;;;;;;;13.13;5.55;;;11.70;66.30;;;;;;10330653;28;20056;-63
2021/04/23 19:24:35;;;;;;;8.82;3.20;;;11.50;66.90;;;;;;10311836;28;20065;-63
2021/04/23 19:29:36;;;;;;;6.55;3.05;;;11.30;67.40;;;;;;10315052;28;20053;-64
2021/04/23 19:34:38;;;;;;;9.23;3.65;;;11.20;68.10;;;;;;10311457;28;20057;-64
2021/04/23 19:39:39;;;;;;;8.82;3.17;;;11.10;68.40;;;;;;10328181;28;20042;-64
2021/04/23 19:44:40;;;;;;;8.48;3.60;;;10.90;69.90;;;;;;10312558;28;20053;-63
2021/04/23 19:49:42;;;;;;;9.50;4.95;;;10.80;73.10;;;;;;10321110;28;20057;-63
2021/04/23 19:54:44;;;;;;;29.55;14.13;;;10.70;75.10;;;;;;10309630;28;20059;-63
2021/04/23 19:59:47;;;;;;;35.40;19.88;;;10.40;75.10;;;;;;10320863;28;20054;-64
2021/04/23 20:04:48;;;;;;;25.52;13.10;;;10.20;76.90;;;;;;10308788;28;20065;-63
2021/04/23 20:09:50;;;;;;;15.43;7.45;;;10.00;77.80;;;;;;10320989;28;20100;-64
2021/04/23 20:14:52;;;;;;;10.27;5.63;;;9.70;76.70;;;;;;10323322;28;20052;-64
2021/04/23 20:20:04;;;;;;;11.15;4.40;;;9.60;77.80;;;;;;10309722;28;20061;-64
2021/04/23 20:25:06;;;;;;;6.47;3.42;;;9.50;81.10;;;;;;10308457;28;20543;-64
2021/04/23 20:30:11;;;;;;;9.43;3.55;;;9.40;82.40;;;;;;10304052;28;555410;-63
2021/04/23 20:35:13;;;;;;;6.55;2.38;;;9.20;80.30;;;;;;10320483;28;20061;-62
2021/04/23 20:40:15;;;;;;;10.52;3.10;;;9.20;82.00;;;;;;10327927;28;20046;-64
2021/04/23 20:45:18;;;;;;;9.25;3.35;;;9.10;82.80;;;;;;10316678;28;21867;-62
2021/04/23 20:50:20;;;;;;;7.95;3.00;;;9.00;82.50;;;;;;10322973;28;21095;-62
2021/04/23 20:55:22;;;;;;;7.03;3.00;;;8.80;81.80;;;;;;10315722;28;20061;-63
2021/04/23 21:00:23;;;;;;;4.10;2.20;;;8.70;81.90;;;;;;10304373;28;20076;-62
2021/04/23 21:05:24;;;;;;;8.13;2.92;;;8.50;81.60;;;;;;10326110;28;20053;-63
2021/04/23 21:10:26;;;;;;;7.20;3.47;;;8.50;81.50;;;;;;10323966;28;20057;-62
2021/04/23 21:15:28;;;;;;;7.30;2.35;;;8.40;81.40;;;;;;10315346;28;20085;-63
2021/04/23 21:20:29;;;;;;;6.00;2.78;;;8.40;81.90;;;;;;10326958;28;20042;-63
2021/04/23 21:25:31;;;;;;;8.18;3.63;;;8.30;83.10;;;;;;10322293;28;20551;-63
2021/04/23 21:30:32;;;;;;;9.23;3.55;;;8.20;85.70;;;;;;10276788;28;20082;-63
2021/04/23 21:35:33;;;;;;;12.20;3.42;;;8.10;86.00;;;;;;10325463;28;20595;-63
2021/04/23 21:40:35;;;;;;;5.35;2.97;;;8.00;84.50;;;;;;10327623;28;20049;-63
2021/04/23 21:45:36;;;;;;;5.80;3.25;;;8.00;85.20;;;;;;10326822;28;20078;-62
2021/04/23 21:50:38;;;;;;;7.22;3.55;;;7.90;86.80;;;;;;10323043;28;20132;-61
2021/04/23 21:55:39;;;;;;;11.13;4.07;;;7.90;88.80;;;;;;10325133;28;20105;-63
2021/04/23 22:00:40;;;;;;;8.77;4.85;;;7.80;88.30;;;;;;10306010;28;20116;-63
2021/04/23 22:05:42;;;;;;;6.65;3.70;;;7.60;90.30;;;;;;10287804;28;20064;-63
2021/04/23 22:10:43;;;;;;;7.03;4.07;;;7.50;91.00;;;;;;10305016;28;20109;-63
2021/04/23 22:15:44;;;;;;;13.23;4.18;;;7.40;91.60;;;;;;10309528;28;20183;-63
2021/04/23 22:20:45;;;;;;;13.05;4.80;;;7.30;93.00;;;;;;10319198;28;20057;-63
2021/04/23 22:25:47;;;;;;;8.27;4.15;;;7.20;93.70;;;;;;10307323;28;20046;-63
2021/04/23 22:30:49;;;;;;;14.93;5.82;;;7.10;94.90;;;;;;10312272;28;20061;-63
2021/04/23 22:35:50;;;;;;;12.27;4.97;;;7.00;95.70;;;;;;10305772;28;20046;-63
2021/04/23 22:40:51;;;;;;;13.75;5.20;;;6.90;95.70;;;;;;10306882;28;20054;-63
2021/04/23 22:45:53;;;;;;;14.80;4.43;;;6.80;95.90;;;;;;10318253;28;20056;-63
2021/04/23 22:50:54;;;;;;;10.25;3.75;;;6.70;95.90;;;;;;10323255;28;20041;-63
2021/04/23 22:55:55;;;;;;;12.20;5.05;;;6.80;95.10;;;;;;10314811;28;20054;-63
2021/04/23 23:00:57;;;;;;;9.73;4.20;;;6.70;94.00;;;;;;10333036;28;20050;-63
2021/04/23 23:05:58;;;;;;;14.70;4.60;;;6.80;93.50;;;;;;10330653;28;20413;-63
2021/04/23 23:10:59;;;;;;;11.38;3.63;;;7.00;92.50;;;;;;10332736;28;20069;-63
2021/04/23 23:16:01;;;;;;;12.45;4.25;;;7.10;92.40;;;;;;10329066;28;20096;-64
2021/04/23 23:21:02;;;;;;;13.32;3.83;;;7.10;92.00;;;;;;10310831;28;20127;-63
2021/04/23 23:26:04;;;;;;;11.60;3.78;;;7.20;91.60;;;;;;10332991;28;20642;-62
2021/04/23 23:31:05;;;;;;;16.30;5.03;;;7.30;91.30;;;;;;10332917;28;20077;-63
2021/04/23 23:36:06;;;;;;;11.27;4.30;;;7.40;91.30;;;;;;10328516;28;20070;-62
2021/04/23 23:41:08;;;;;;;7.95;3.45;;;7.40;91.00;;;;;;10323515;28;20928;-63
2021/04/23 23:46:09;;;;;;;8.65;4.35;;;7.40;91.00;;;;;;10331435;28;20053;-62
2021/04/23 23:51:10;;;;;;;11.13;4.13;;;7.40;90.40;;;;;;10326493;28;20054;-63
2021/04/23 23:56:11;;;;;;;12.35;4.85;;;7.50;90.50;;;;;;10330857;28;20070;-62
